Time;durP1;ratioP1;P1;durP2;ratioP2;P2;SDS_P1;SDS_P2;PMS_P1;PMS_P2;Temp;Humidity;BMP_temperature;BMP_pressure;BME280_temperature;BME280_humidity;BME280_pressure;Samples;Min_cycle;Max_cycle;Signal;HPM_P1;HPM_P2
2023/04/05 00:01:54;;;;;;;15.55;6.57;;;2.10;99.90;;;-144.05;52.59;56980.53;5017228;28;20084;-80
2023/04/05 00:04:20;;;;;;;11.75;6.38;;;2.00;99.90;;;-144.05;52.50;56999.63;5001307;28;20030;-78
2023/04/05 00:06:51;;;;;;;12.48;6.57;;;2.00;99.90;;;-144.05;53.25;56982.66;4996289;28;20097;-78
2023/04/05 00:09:19;;;;;;;12.65;6.53;;;1.90;99.90;;;-144.05;53.51;56989.00;4996481;28;20048;-80
2023/04/05 00:11:46;;;;;;;10.55;6.03;;;1.90;99.90;;;-144.05;53.80;56989.00;5014295;28;20088;-79
2023/04/05 00:14:12;;;;;;;10.43;6.75;;;1.70;99.90;;;-144.05;54.78;56997.50;4996286;28;20033;-79
2023/04/05 00:16:39;;;;;;;14.43;7.00;;;1.60;99.90;;;-144.05;55.13;56980.53;4995505;28;20088;-76
2023/04/05 00:19:05;;;;;;;10.57;6.20;;;1.50;99.90;;;-144.05;55.65;56982.66;5012800;28;20104;-81
2023/04/05 00:21:32;;;;;;;13.00;6.72;;;1.40;99.90;;;-144.05;55.49;56976.28;4995558;28;20126;-79
2023/04/05 00:23:59;;;;;;;9.82;6.07;;;1.20;99.90;;;-144.05;55.88;56999.63;4995685;28;20033;-80
2023/04/05 00:26:26;;;;;;;15.45;6.20;;;1.10;99.90;;;-144.05;56.72;57020.88;4995954;28;20388;-79
2023/04/05 00:28:52;;;;;;;12.88;6.25;;;1.10;99.90;;;-144.05;56.63;56967.78;5016429;28;20034;-80
2023/04/05 00:31:18;;;;;;;10.65;6.10;;;1.00;99.90;;;-144.05;56.93;56984.78;4998289;28;20060;-78
2023/04/05 00:33:45;;;;;;;16.63;6.65;;;0.90;99.90;;;-144.05;57.34;57010.25;4998186;28;20052;-79
2023/04/05 00:36:18;;;;;;;12.07;6.30;;;0.70;99.90;;;-144.05;57.80;56989.00;4998302;28;20088;-80
2023/04/05 00:38:48;;;;;;;10.57;5.97;;;0.70;99.90;;;-144.05;58.19;56986.91;4998147;28;20030;-79
2023/04/05 00:41:15;;;;;;;9.45;6.38;;;0.50;99.90;;;-144.05;59.16;56989.00;4998298;28;20030;-79
2023/04/05 00:43:41;;;;;;;10.52;6.40;;;0.50;99.90;;;-144.05;59.19;56999.63;5015630;28;20049;-77
2023/04/05 00:46:08;;;;;;;13.43;6.28;;;0.40;99.90;;;-144.05;59.59;56978.41;5015813;28;20037;-78
2023/04/05 00:48:35;;;;;;;11.90;6.15;;;0.40;99.90;;;-144.05;59.53;57020.88;4998237;28;20128;-79
2023/04/05 00:51:01;;;;;;;14.02;6.95;;;0.30;99.90;;;-144.05;60.23;57012.38;4999812;28;20030;-78
2023/04/05 00:53:28;;;;;;;17.05;6.57;;;0.20;99.90;;;-144.05;60.56;56997.50;4998283;28;20401;-77
2023/04/05 00:55:56;;;;;;;11.80;6.32;;;0.20;99.90;;;-144.05;60.03;57010.25;4998200;28;20032;-78
2023/04/05 00:58:22;;;;;;;12.70;7.25;;;0.10;99.90;;;-144.05;60.26;56993.25;5015823;28;20030;-77
2023/04/05 01:01:27;;;;;;;12.57;6.57;;;0.10;99.90;;;-144.05;60.92;57012.38;4998739;28;20022;-77
2023/04/05 01:04:02;;;;;;;14.43;6.80;;;0.10;99.90;;;-144.05;61.13;57010.25;5011565;28;20045;-78
2023/04/05 01:07:11;;;;;;;9.82;5.88;;;0.00;99.90;;;-144.05;62.64;57020.88;4998627;28;20103;-77
2023/04/05 01:10:04;;;;;;;14.75;7.65;;;-0.10;99.90;;;-144.05;62.41;57014.50;5016031;28;20033;-77
2023/04/05 01:12:32;;;;;;;17.80;6.85;;;-0.10;99.90;;;-144.05;62.37;56989.00;5015220;28;20026;-78
2023/04/05 01:15:00;;;;;;;11.60;6.75;;;-0.10;99.90;;;-144.05;62.42;57006.00;4997377;28;20549;-79
2023/04/05 01:17:35;;;;;;;16.70;7.80;;;-0.10;99.90;;;-144.05;63.16;57003.88;5014934;28;20032;-77
2023/04/05 01:20:09;;;;;;;20.70;7.35;;;0.00;99.90;;;-144.05;63.48;57012.38;5014824;28;20032;-79
2023/04/05 01:23:05;;;;;;;11.52;6.55;;;0.10;99.90;;;-144.05;62.86;57020.88;4997215;28;20397;-79
2023/04/05 01:26:16;;;;;;;13.20;6.50;;;0.10;99.90;;;-144.05;63.84;57006.00;4997066;28;20030;-78
2023/04/05 01:29:23;;;;;;;14.63;7.03;;;-0.10;99.90;;;-144.05;64.00;57020.88;5014486;28;20052;-78
2023/04/05 01:32:05;;;;;;;13.73;6.70;;;-0.10;99.90;;;-144.05;64.02;56999.63;5014713;28;20030;-79
2023/04/05 01:35:11;;;;;;;14.23;7.05;;;-0.20;99.90;;;-144.05;64.42;57010.25;4998337;28;20497;-79
2023/04/05 01:37:40;;;;;;;12.50;6.93;;;-0.30;99.90;;;-144.05;64.43;57012.38;5001760;28;20076;-78
2023/04/05 01:40:08;;;;;;;12.88;6.95;;;-0.20;99.90;;;-144.05;64.92;57012.38;4996904;28;20048;-78
2023/04/05 01:42:35;;;;;;;14.48;6.30;;;-0.20;99.90;;;-144.05;65.70;57003.88;4996165;28;20129;-79
2023/04/05 01:45:01;;;;;;;13.38;6.70;;;-0.20;99.90;;;-144.05;65.19;56993.25;5013638;28;20482;-79
2023/04/05 01:47:27;;;;;;;15.00;7.05;;;-0.20;99.90;;;-144.05;65.31;57010.25;5013241;28;20117;-78
2023/04/05 01:49:52;;;;;;;15.30;7.03;;;-0.20;99.90;;;-144.05;65.15;57016.63;5013853;28;20101;-77
2023/04/05 01:52:18;;;;;;;15.27;7.53;;;-0.30;99.90;;;-144.05;65.73;57008.13;5013728;28;20021;-78
2023/04/05 01:54:44;;;;;;;13.63;7.25;;;-0.20;99.90;;;-144.05;65.47;56984.78;4996199;28;20025;-78
2023/04/05 01:57:10;;;;;;;12.73;7.03;;;-0.20;99.90;;;-144.05;65.71;57001.75;5013311;28;20037;-78
2023/04/05 01:59:36;;;;;;;16.15;7.05;;;-0.30;99.90;;;-144.05;66.05;57027.25;5013508;28;20026;-79
2023/04/05 02:02:02;;;;;;;14.23;7.78;;;-0.20;99.90;;;-144.05;65.56;57006.00;4995759;28;20033;-78
2023/04/05 02:04:28;;;;;;;13.43;6.82;;;-0.10;99.90;;;-144.05;65.36;56982.66;4995676;28;20026;-77
2023/04/05 02:06:54;;;;;;;15.15;7.07;;;-0.10;99.90;;;-144.05;65.04;57018.75;4995548;28;20401;-76
2023/04/05 02:09:20;;;;;;;14.82;7.45;;;-0.20;99.90;;;-144.05;65.32;56986.91;5013142;28;20481;-78
2023/04/05 02:11:46;;;;;;;15.88;7.18;;;-0.20;99.90;;;-144.05;65.16;57001.75;4995322;28;20030;-78
2023/04/05 02:14:12;;;;;;;13.52;7.18;;;-0.30;99.90;;;-144.05;65.74;56986.91;4995403;28;20033;-78
2023/04/05 02:16:38;;;;;;;15.63;7.28;;;-0.30;99.90;;;-144.05;65.99;57006.00;4995230;28;20033;-78
2023/04/05 02:19:04;;;;;;;13.55;7.80;;;-0.30;99.90;;;-144.05;66.24;57008.13;5012767;28;20022;-78
2023/04/05 02:21:30;;;;;;;13.93;7.72;;;-0.30;99.90;;;-144.05;66.09;56989.00;5017386;28;20032;-82
2023/04/05 02:23:56;;;;;;;12.90;7.20;;;-0.40;99.90;;;-144.05;66.14;57014.50;5015748;28;20034;-81
2023/04/05 02:26:22;;;;;;;14.75;7.05;;;-0.40;99.90;;;-144.05;65.97;57006.00;5017507;28;20120;-83
2023/04/05 02:28:48;;;;;;;15.25;7.65;;;-0.40;99.90;;;-144.05;66.00;56989.00;4998562;28;20033;-82
2023/04/05 02:31:15;;;;;;;15.70;7.85;;;-0.50;99.90;;;-144.05;66.04;57023.00;5015811;28;20044;-82
2023/04/05 02:33:41;;;;;;;13.68;7.00;;;-0.50;99.90;;;-144.05;66.22;56982.66;4997801;28;20025;-81
2023/04/05 02:36:14;;;;;;;14.95;6.93;;;-0.50;99.90;;;-144.05;66.33;56991.13;5015589;28;20038;-80
2023/04/05 02:38:40;;;;;;;11.80;6.70;;;-0.60;99.90;;;-144.05;66.87;57031.50;5014660;28;20037;-78
2023/04/05 02:41:13;;;;;;;13.30;7.28;;;-0.50;99.90;;;-144.05;66.90;56993.25;5014652;28;20030;-79
2023/04/05 02:43:39;;;;;;;12.32;6.72;;;-0.50;99.90;;;-144.05;67.15;56982.66;5014240;28;20055;-80
2023/04/05 02:46:05;;;;;;;12.80;6.65;;;-0.60;99.90;;;-144.05;66.87;57014.50;5013781;28;20030;-79
2023/04/05 02:48:31;;;;;;;14.73;7.38;;;-0.60;99.90;;;-144.05;67.01;56984.78;5013676;28;20405;-79
2023/04/05 02:50:57;;;;;;;15.00;8.90;;;-0.60;99.90;;;-144.05;67.33;57023.00;5013516;28;20453;-79
2023/04/05 02:53:23;;;;;;;15.88;7.63;;;-0.70;99.90;;;-144.05;67.69;57027.25;4995356;28;20115;-79
2023/04/05 02:55:58;;;;;;;13.98;6.70;;;-0.70;99.90;;;-144.05;67.83;56999.63;4995327;28;20383;-78
2023/04/05 02:58:24;;;;;;;15.00;6.97;;;-0.80;99.90;;;-144.05;67.93;56999.63;5012787;28;20044;-79
2023/04/05 03:00:53;;;;;;;18.10;8.27;;;-0.90;99.90;;;-144.05;68.06;57010.25;4995147;28;20556;-79
2023/04/05 03:03:21;;;;;;;14.68;7.65;;;-0.90;99.90;;;-144.05;67.94;57008.13;4994979;28;20030;-78
2023/04/05 03:06:00;;;;;;;14.68;7.50;;;-1.00;99.90;;;-144.05;68.06;57016.63;5012247;28;20235;-78
2023/04/05 03:08:27;;;;;;;16.55;7.30;;;-1.00;99.90;;;-144.05;67.91;57040.00;4994712;28;20033;-79
2023/04/05 03:10:53;;;;;;;11.52;6.88;;;-1.10;99.90;;;-144.05;68.06;57008.13;5012636;28;20057;-77
2023/04/05 03:13:19;;;;;;;14.52;7.40;;;-1.10;99.90;;;-144.05;69.09;56999.63;5012324;28;20500;-78
2023/04/05 03:15:45;;;;;;;13.25;8.10;;;-1.10;99.90;;;-144.05;68.50;57001.75;4994429;28;20018;-77
2023/04/05 03:18:11;;;;;;;19.88;9.10;;;-1.20;99.90;;;-144.05;68.77;57010.25;5011939;28;20085;-78
2023/04/05 03:20:38;;;;;;;14.63;7.90;;;-1.10;99.90;;;-144.05;68.58;57027.25;5012317;28;20026;-78
2023/04/05 03:23:07;;;;;;;14.65;7.82;;;-1.10;99.90;;;-144.05;68.96;57006.00;5012404;28;20485;-78
2023/04/05 03:25:39;;;;;;;19.98;8.90;;;-1.10;99.90;;;-144.05;69.16;56993.25;4995241;28;20076;-77
2023/04/05 03:28:07;;;;;;;14.35;7.65;;;-1.10;99.90;;;-144.05;69.19;57003.88;5012285;28;20026;-78
2023/04/05 03:30:36;;;;;;;15.82;8.63;;;-1.10;99.90;;;-144.05;69.21;57010.25;5013186;28;20576;-80
2023/04/05 03:33:02;;;;;;;19.33;8.52;;;-1.10;99.90;;;-144.05;68.99;57033.63;5012552;28;20034;-77
2023/04/05 03:35:29;;;;;;;14.10;7.22;;;-1.20;99.90;;;-144.05;69.11;57027.25;5013383;28;20022;-78
2023/04/05 03:37:58;;;;;;;14.05;8.10;;;-1.30;99.90;;;-144.05;69.48;57001.75;4995389;28;20393;-78
2023/04/05 03:40:24;;;;;;;18.38;8.38;;;-1.20;99.90;;;-144.05;69.36;56993.25;4995217;28;20026;-77
2023/04/05 03:42:50;;;;;;;20.40;8.27;;;-1.10;99.90;;;-144.05;69.40;57018.75;5013127;28;20444;-76
2023/04/05 03:45:17;;;;;;;19.52;8.43;;;-1.10;99.90;;;-144.05;69.21;57014.50;4995428;28;20034;-78
2023/04/05 03:47:43;;;;;;;16.37;8.23;;;-1.10;99.90;;;-144.05;69.25;57001.75;5045877;23;20121;-78
2023/04/05 03:50:09;;;;;;;14.20;7.75;;;-1.10;99.90;;;-144.05;69.07;56997.50;5030544;28;20124;-79
2023/04/05 03:52:35;;;;;;;21.95;7.70;;;-1.20;99.90;;;-144.05;69.45;56991.13;5014612;28;20087;-77
2023/04/05 03:55:01;;;;;;;15.82;7.63;;;-1.20;99.90;;;-144.05;69.65;57006.00;5032612;28;20021;-79
2023/04/05 03:57:29;;;;;;;12.57;7.80;;;-1.10;99.90;;;-144.05;69.77;56999.63;5032568;28;20453;-80
2023/04/05 03:59:55;;;;;;;16.17;8.07;;;-1.10;99.90;;;-144.05;69.65;57027.25;5014844;28;20079;-80
2023/04/05 04:02:21;;;;;;;17.55;8.63;;;-1.10;99.90;;;-144.05;69.60;56999.63;5035615;28;20033;-78
2023/04/05 04:04:46;;;;;;;16.23;7.40;;;-1.20;99.90;;;-144.05;69.67;57014.50;5037843;28;20480;-79
2023/04/05 04:07:13;;;;;;;20.23;8.50;;;-1.20;99.90;;;-144.05;69.70;57001.75;5019866;28;20029;-77
2023/04/05 04:09:40;;;;;;;21.05;9.20;;;-1.20;99.90;;;-144.05;69.70;57016.63;5019105;28;20121;-77
2023/04/05 04:12:06;;;;;;;19.20;7.80;;;-1.30;99.90;;;-144.05;69.80;56986.91;5037072;28;20033;-79
2023/04/05 04:14:34;;;;;;;23.48;7.95;;;-1.30;99.90;;;-144.05;69.89;56989.00;5037416;28;20036;-78
2023/04/05 04:17:00;;;;;;;15.15;8.00;;;-1.30;99.90;;;-144.05;70.14;56991.13;5037416;28;20222;-79
2023/04/05 04:19:26;;;;;;;15.13;8.38;;;-1.30;99.90;;;-144.05;70.03;57003.88;5037558;28;20489;-80
2023/04/05 04:21:52;;;;;;;21.38;8.35;;;-1.30;99.90;;;-144.05;70.31;57023.00;5037980;28;20087;-79
2023/04/05 04:24:18;;;;;;;18.70;8.85;;;-1.30;99.90;;;-144.05;70.12;57001.75;5020204;28;20033;-77
2023/04/05 04:26:48;;;;;;;13.13;7.45;;;-1.40;99.90;;;-144.05;70.42;57012.38;5020418;28;20437;-78
2023/04/05 04:29:17;;;;;;;13.93;7.97;;;-1.40;99.90;;;-144.05;70.59;57018.75;5037570;28;20041;-77
2023/04/05 04:31:44;;;;;;;19.27;8.52;;;-1.50;99.90;;;-144.05;70.64;57008.13;5019919;28;20029;-81
2023/04/05 04:34:13;;;;;;;14.32;8.20;;;-1.60;99.90;;;-144.05;70.85;57029.38;5037860;28;20053;-78
2023/04/05 04:36:41;;;;;;;22.15;9.10;;;-1.60;99.90;;;-144.05;71.08;57010.25;5037054;28;20021;-78
2023/04/05 04:39:09;;;;;;;20.13;9.73;;;-1.60;99.90;;;-144.05;70.95;57016.63;5037736;28;20022;-79
2023/04/05 04:41:37;;;;;;;19.50;8.80;;;-1.60;99.90;;;-144.05;71.17;57020.88;5020244;28;20101;-77
2023/04/05 04:44:04;;;;;;;19.60;9.52;;;-1.60;99.90;;;-144.05;71.10;56976.28;5020168;28;20033;-77
2023/04/05 04:46:41;;;;;;;19.13;8.40;;;-1.60;99.90;;;-144.05;70.91;57025.13;5020379;28;20116;-79
2023/04/05 04:49:09;;;;;;;21.33;8.40;;;-1.60;99.90;;;-144.05;70.71;56997.50;5038270;28;20030;-80
2023/04/05 04:51:37;;;;;;;20.20;9.65;;;-1.70;99.90;;;-144.05;71.10;57020.88;5038332;28;20087;-78
2023/04/05 04:54:05;;;;;;;17.83;9.15;;;-1.70;99.90;;;-144.05;70.71;57006.00;5028723;28;20034;-78
2023/04/05 04:56:31;;;;;;;17.85;8.85;;;-1.70;99.90;;;-144.05;71.06;57018.75;5048210;28;20521;-79
2023/04/05 04:58:57;;;;;;;23.25;9.05;;;-1.60;99.90;;;-144.05;70.99;57014.50;5038582;28;20112;-79
2023/04/05 05:01:23;;;;;;;21.35;8.07;;;-1.70;99.90;;;-144.05;71.10;57001.75;5042417;28;20041;-77
2023/04/05 05:03:51;;;;;;;16.38;7.82;;;-1.70;99.90;;;-144.05;71.01;57031.50;5023114;28;20121;-78
2023/04/05 05:06:23;;;;;;;15.43;8.07;;;-1.70;99.90;;;-144.05;71.16;57020.88;5041305;28;20045;-78
2023/04/05 05:08:49;;;;;;;17.85;9.55;;;-1.80;99.90;;;-144.05;71.40;57025.13;5023285;28;20468;-78
2023/04/05 05:11:15;;;;;;;16.83;8.65;;;-1.80;99.90;;;-144.05;70.91;57001.75;5048864;28;20562;-78
2023/04/05 05:13:41;;;;;;;19.00;9.18;;;-1.80;99.90;;;-144.05;71.18;57010.25;5021914;28;20034;-79
2023/04/05 05:16:10;;;;;;;20.35;9.73;;;-1.70;99.90;;;-144.05;71.62;57031.50;5038298;28;20049;-78
2023/04/05 05:18:36;;;;;;;17.00;9.73;;;-1.70;99.90;;;-144.05;71.39;57016.63;5019824;28;20021;-80
2023/04/05 05:21:02;;;;;;;18.40;9.85;;;-1.50;99.90;;;-144.05;71.58;57001.75;5020272;28;20417;-77
2023/04/05 05:23:28;;;;;;;18.35;9.30;;;-1.40;99.90;;;-144.05;71.60;57006.00;5038028;28;20025;-78
2023/04/05 05:26:00;;;;;;;17.60;9.30;;;-1.30;99.90;;;-144.05;71.29;57003.88;5038238;28;20041;-77
2023/04/05 05:28:26;;;;;;;21.52;9.68;;;-1.30;99.90;;;-144.05;71.19;57014.50;5038056;28;20057;-77
2023/04/05 05:30:52;;;;;;;16.25;8.98;;;-1.20;99.90;;;-144.05;71.16;56991.13;5038949;28;20026;-79
2023/04/05 05:33:18;;;;;;;20.67;10.82;;;-1.10;99.90;;;-144.05;71.04;56989.00;5020327;28;20049;-79
2023/04/05 05:35:50;;;;;;;17.38;9.18;;;-1.10;99.90;;;-144.05;71.08;56991.13;5020138;28;20064;-77
2023/04/05 05:38:19;;;;;;;21.23;10.02;;;-1.00;99.90;;;-144.05;70.98;56980.53;5037849;28;20427;-79
2023/04/05 05:40:45;;;;;;;19.48;10.20;;;-0.90;99.90;;;-144.05;70.95;57003.88;5019588;28;20436;-77
2023/04/05 05:43:11;;;;;;;22.52;9.40;;;-0.80;99.90;;;-144.05;70.91;57010.25;5037967;28;20083;-78
2023/04/05 05:45:37;;;;;;;17.98;9.02;;;-0.70;99.90;;;-144.05;70.79;56989.00;5037497;28;20120;-78
2023/04/05 05:48:03;;;;;;;22.25;10.60;;;-0.60;99.90;;;-144.05;70.69;56989.00;5035839;28;20033;-78
2023/04/05 05:50:32;;;;;;;22.65;9.48;;;-0.50;99.90;;;-144.05;70.34;56993.25;5018860;28;20488;-79
2023/04/05 05:53:00;;;;;;;16.42;9.50;;;-0.30;99.90;;;-144.05;69.95;56993.25;5037601;28;20026;-77
2023/04/05 05:55:26;;;;;;;16.38;10.32;;;-0.10;99.90;;;-144.05;69.49;57001.75;5019666;28;20079;-77
2023/04/05 05:57:53;;;;;;;18.80;9.68;;;0.10;99.90;;;-144.05;69.04;56974.16;5038079;28;20338;-78
2023/04/05 06:00:20;;;;;;;19.48;9.30;;;0.30;99.90;;;-144.05;68.50;56989.00;5020103;28;20040;-79
2023/04/05 06:02:45;;;;;;;23.63;11.02;;;0.50;99.90;;;-144.05;67.95;56976.28;5020117;28;20103;-79
2023/04/05 06:05:11;;;;;;;14.85;9.15;;;0.60;99.90;;;-144.05;67.44;56959.28;5037296;28;20489;-80
2023/04/05 06:07:37;;;;;;;16.13;9.23;;;0.80;99.90;;;-144.05;67.93;56950.78;5037346;28;20096;-79
2023/04/05 06:10:06;;;;;;;15.43;8.27;;;1.10;99.90;;;-144.05;68.17;56955.03;5019368;28;20489;-78
2023/04/05 06:12:32;;;;;;;17.98;9.23;;;1.30;99.90;;;-144.05;67.95;56952.91;5018639;28;20036;-78
2023/04/05 06:15:00;;;;;;;19.27;8.05;;;1.60;99.90;;;-144.05;66.92;56929.53;5036614;28;20026;-79
2023/04/05 06:17:27;;;;;;;15.20;7.93;;;1.70;99.90;;;-144.05;66.48;56935.91;5036299;28;20021;-79
2023/04/05 06:19:53;;;;;;;14.05;7.22;;;1.90;99.90;;;-144.05;64.86;56916.81;5018516;28;20029;-79
2023/04/05 06:22:19;;;;;;;14.88;8.35;;;2.10;99.90;;;-144.05;63.34;56921.06;5036065;28;20029;-80
2023/04/05 06:24:45;;;;;;;13.07;7.85;;;2.40;99.90;;;-144.05;61.15;56912.56;5019455;28;20029;-79
2023/04/05 06:27:13;;;;;;;12.82;6.88;;;2.70;99.90;;;-144.05;59.38;56910.44;5036578;28;20041;-79
2023/04/05 06:29:39;;;;;;;13.13;6.85;;;2.90;99.90;;;-144.05;57.54;56942.28;5017456;28;20416;-80
2023/04/05 06:32:05;;;;;;;15.73;8.15;;;3.30;99.90;;;-144.05;55.24;56897.69;5036025;28;20079;-80
2023/04/05 06:34:31;;;;;;;11.85;6.75;;;3.60;99.90;;;-144.05;54.24;56912.56;5018948;28;20033;-80
2023/04/05 06:36:57;;;;;;;10.93;6.78;;;4.00;99.90;;;-144.05;52.79;56887.06;5019034;28;20021;-81
2023/04/05 06:39:23;;;;;;;13.00;7.38;;;4.40;99.90;;;-144.05;51.30;56908.31;5018139;28;20132;-80
2023/04/05 06:41:49;;;;;;;19.33;8.27;;;4.80;99.90;;;-144.05;48.71;56918.94;5038161;28;20033;-80
2023/04/05 06:44:15;;;;;;;19.20;7.32;;;4.90;99.90;;;-144.05;48.46;56908.31;5036799;28;20092;-81
2023/04/05 06:46:40;;;;;;;16.50;6.90;;;5.10;99.90;;;-144.05;47.80;56918.94;5018246;28;20029;-80
2023/04/05 06:49:06;;;;;;;11.75;6.45;;;5.20;99.90;;;-144.05;47.42;56916.81;5039756;28;20230;-83
2023/04/05 06:51:32;;;;;;;11.88;7.03;;;5.40;99.90;;;-144.05;47.08;56918.94;5039273;28;20026;-82
2023/04/05 06:53:58;;;;;;;11.27;6.95;;;5.70;99.90;;;-144.05;46.80;56901.94;5036478;28;20033;-81
2023/04/05 06:56:24;;;;;;;11.82;6.75;;;5.90;99.90;;;-144.05;45.46;56904.06;5018215;28;20041;-82
2023/04/05 06:58:50;;;;;;;12.27;7.40;;;6.00;99.90;;;-144.05;45.90;56891.31;5018007;28;20033;-80
2023/04/05 07:01:16;;;;;;;13.75;6.55;;;6.10;99.90;;;-144.05;45.72;56906.19;5035856;28;20028;-81
2023/04/05 07:03:42;;;;;;;13.90;6.88;;;6.30;99.90;;;-144.05;45.30;56904.06;5034970;28;20029;-80
2023/04/05 07:06:08;;;;;;;15.48;7.00;;;6.30;99.90;;;-144.05;44.39;56912.56;5017045;28;20549;-81
2023/04/05 07:08:34;;;;;;;14.25;7.30;;;6.60;99.90;;;-144.05;44.05;56914.69;5035575;28;20033;-82
2023/04/05 07:11:24;;;;;;;13.57;7.28;;;6.70;99.90;;;-144.05;42.74;56897.69;4415059;27;21568821;-85
2023/04/05 07:13:50;;;;;;;19.25;7.45;;;6.90;99.90;;;-144.05;43.45;56929.53;5142846;27;20047;-82
2023/04/05 07:16:18;;;;;;;10.75;6.82;;;7.00;99.90;;;-144.05;43.20;56893.44;5133740;28;20053;-85
2023/04/05 07:18:44;;;;;;;16.02;7.68;;;7.20;99.90;;;-144.05;42.51;56891.31;5151008;27;20479;-84
2023/04/05 07:21:10;;;;;;;13.98;7.78;;;7.30;99.90;;;-144.05;42.06;56921.06;5135740;28;20047;-83
2023/04/05 07:23:36;;;;;;;12.02;7.30;;;7.50;99.90;;;-144.05;41.74;56912.56;5152675;27;20079;-85
2023/04/05 07:26:06;;;;;;;14.88;7.03;;;7.50;99.90;;;-144.05;40.47;56927.41;5153502;27;20077;-79
2023/04/05 07:28:34;;;;;;;14.52;6.43;;;7.60;99.90;;;-144.05;40.46;56882.81;5134167;28;20027;-86
2023/04/05 07:31:03;;;;;;;11.45;5.68;;;8.00;99.90;;;-144.05;38.88;56901.94;5134806;27;20063;-82
2023/04/05 07:33:29;;;;;;;10.18;5.50;;;8.40;99.90;;;-144.05;38.33;56882.81;5132149;27;20023;-83
2023/04/05 07:35:58;;;;;;;9.82;5.20;;;8.30;99.90;;;-144.05;37.76;56899.81;5149192;27;20077;-81
2023/04/05 07:38:25;;;;;;;11.52;5.60;;;8.40;99.90;;;-144.05;37.07;56901.94;5149121;27;20030;-85
2023/04/05 07:40:51;;;;;;;12.27;5.47;;;8.50;99.90;;;-144.05;36.87;56891.31;5150131;27;20031;-83
2023/04/05 07:43:18;;;;;;;10.32;5.10;;;8.70;99.90;;;-144.05;36.23;56895.56;5134145;27;20031;-82
2023/04/05 07:45:45;;;;;;;7.72;4.78;;;8.90;99.90;;;-144.05;34.78;56895.56;5131365;28;20134;-84
2023/04/05 07:48:10;;;;;;;9.95;4.30;;;9.00;97.20;;;-144.05;34.09;56863.69;5148067;27;20031;-82
2023/04/05 07:50:39;;;;;;;5.85;3.78;;;9.10;95.20;;;-144.05;34.41;56904.06;5148922;27;20039;-86
2023/04/05 07:53:07;;;;;;;6.28;4.28;;;8.90;94.80;;;-144.05;34.31;56904.06;5132709;27;20083;-85
2023/04/05 07:55:36;;;;;;;13.00;5.00;;;9.00;94.10;;;-144.05;34.38;56887.06;5148475;27;20038;-85
2023/04/05 07:58:02;;;;;;;12.30;5.65;;;9.10;94.80;;;-144.05;34.07;56901.94;5132015;28;20023;-88
2023/04/05 08:00:28;;;;;;;8.98;4.85;;;9.30;94.20;;;-144.05;33.66;56889.19;5151113;27;20086;-88
2023/04/05 08:02:54;;;;;;;8.15;4.97;;;9.40;93.10;;;-144.05;33.49;56880.69;5135340;27;20057;-87
2023/04/05 08:05:20;;;;;;;10.32;4.90;;;9.60;92.40;;;-144.05;33.37;56893.44;5145093;28;20031;-83
2023/04/05 08:07:45;;;;;;;8.23;4.65;;;10.00;91.90;;;-144.05;32.25;56884.94;5144543;28;20028;-85
2023/04/05 08:10:11;;;;;;;8.40;4.85;;;10.20;88.90;;;-144.05;31.58;56874.31;5132647;28;20530;-86
2023/04/05 08:12:37;;;;;;;5.88;4.50;;;10.40;84.50;;;-144.05;31.88;56880.69;5135185;28;20478;-82
2023/04/05 08:15:04;;;;;;;8.40;4.88;;;10.50;84.80;;;-144.05;31.56;56872.19;5134667;27;20054;-86
2023/04/05 08:17:29;;;;;;;12.13;5.45;;;10.30;85.10;;;-144.05;31.36;56901.94;5135445;27;20032;-83
2023/04/05 08:19:55;;;;;;;12.00;5.20;;;10.50;84.00;;;-144.05;30.90;56891.31;5132791;28;20031;-81
2023/04/05 08:22:21;;;;;;;10.32;4.93;;;10.80;81.90;;;-144.05;30.94;56891.31;5137809;27;20027;-86
2023/04/05 08:24:47;;;;;;;8.07;4.53;;;10.70;80.10;;;-144.05;31.23;56884.94;5118744;28;20467;-84
2023/04/05 08:27:13;;;;;;;9.10;4.95;;;10.90;81.10;;;-144.05;30.92;56863.69;5119155;28;20031;-86
2023/04/05 08:29:39;;;;;;;10.73;5.35;;;11.20;80.90;;;-144.05;30.44;56889.19;5118976;28;20031;-88
2023/04/05 08:32:05;;;;;;;12.38;5.32;;;11.20;80.70;;;-144.05;30.03;56880.69;5117751;28;20015;-85
2023/04/05 08:34:30;;;;;;;9.93;4.95;;;11.20;77.20;;;-144.05;30.07;56876.44;5135257;27;20081;-84
2023/04/05 08:37:00;;;;;;;15.25;5.78;;;11.40;78.00;;;-144.05;30.15;56882.81;5137124;27;20047;-85
2023/04/05 08:39:25;;;;;;;8.95;5.07;;;11.50;76.60;;;-144.05;29.21;56880.69;5135887;27;20546;-87
2023/04/05 08:42:14;;;;;;;10.75;5.28;;;11.50;73.50;;;-144.05;29.50;56891.31;5134731;27;20032;-86
2023/04/05 08:44:45;;;;;;;10.85;4.85;;;11.60;74.00;;;-144.05;29.06;56908.31;5135138;27;20095;-82
2023/04/05 08:47:18;;;;;;;7.95;4.93;;;11.50;72.10;;;-144.05;29.81;56872.19;5134522;27;20422;-86
2023/04/05 08:49:45;;;;;;;10.40;5.30;;;11.60;74.70;;;-144.05;29.34;56859.47;5134082;27;20036;-87
2023/04/05 08:52:11;;;;;;;10.95;5.35;;;11.70;72.70;;;-144.05;29.53;56887.06;5151348;27;20023;-82
2023/04/05 08:54:37;;;;;;;8.05;5.35;;;12.00;73.40;;;-144.05;28.96;56878.56;5154823;27;20073;-87
2023/04/05 08:57:07;;;;;;;13.93;5.53;;;12.30;72.40;;;-144.05;28.84;56882.81;5152827;27;20039;-84
2023/04/05 08:59:40;;;;;;;12.13;5.45;;;12.20;69.20;;;-144.05;28.31;56863.69;5149688;27;20035;-85
2023/04/05 09:02:17;;;;;;;8.95;5.18;;;12.30;68.80;;;-144.05;28.17;56884.94;5118774;28;20031;-83
2023/04/05 09:04:46;;;;;;;10.50;6.05;;;12.00;68.50;;;-144.05;27.70;56867.94;5117335;28;20027;-84
2023/04/05 09:07:16;;;;;;;8.48;4.85;;;12.20;66.50;;;-144.05;28.61;56889.19;5133729;27;20023;-86
2023/04/05 09:09:52;;;;;;;9.50;5.60;;;11.80;68.50;;;-144.05;28.09;56882.81;5117517;28;20046;-86
2023/04/05 09:12:23;;;;;;;11.25;5.95;;;11.80;67.60;;;-144.05;28.27;56874.31;5133017;27;20028;-85
2023/04/05 09:14:51;;;;;;;8.55;5.05;;;12.10;67.50;;;-144.05;28.02;56876.44;5133614;27;20034;-82
2023/04/05 09:17:18;;;;;;;9.07;5.22;;;12.30;66.00;;;-144.05;27.72;56891.31;5118522;28;20040;-85
2023/04/05 09:19:44;;;;;;;9.77;5.07;;;12.30;65.90;;;-144.05;28.12;56876.44;5117696;28;20027;-83
2023/04/05 09:22:10;;;;;;;8.68;4.65;;;12.30;66.60;;;-144.05;28.05;56878.56;5132805;27;20045;-85
2023/04/05 09:24:40;;;;;;;7.43;4.72;;;12.30;66.20;;;-144.05;28.03;56891.31;5117587;28;20093;-83
2023/04/05 09:27:15;;;;;;;9.05;5.38;;;12.30;67.10;;;-144.05;27.37;56882.81;5133315;27;20091;-86
2023/04/05 09:29:47;;;;;;;9.88;4.88;;;12.40;65.00;;;-144.05;27.07;56880.69;5133448;27;20024;-86
2023/04/05 09:32:17;;;;;;;7.28;5.10;;;12.60;63.10;;;-144.05;27.29;56870.06;5133175;27;20148;-85
2023/04/05 09:34:43;;;;;;;9.02;4.95;;;12.70;63.80;;;-144.05;27.20;56859.47;5116852;28;20026;-84
2023/04/05 09:37:20;;;;;;;8.73;5.18;;;12.70;63.50;;;-144.05;27.30;56891.31;5117923;28;20051;-85
2023/04/05 09:39:50;;;;;;;8.93;5.55;;;12.90;63.10;;;-144.05;27.17;56857.34;5116070;28;20036;-86
2023/04/05 09:42:21;;;;;;;7.00;4.95;;;12.70;62.40;;;-144.05;27.30;56876.44;5133489;27;20030;-83
2023/04/05 09:45:01;;;;;;;9.55;5.95;;;12.40;62.80;;;-144.05;27.95;56893.44;5117340;28;20084;-86
2023/04/05 09:47:31;;;;;;;9.98;4.95;;;12.10;63.70;;;-144.05;28.48;56889.19;5133510;27;20506;-89
2023/04/05 09:50:17;;;;;;;8.75;5.55;;;12.10;66.10;;;-144.05;28.33;56878.56;5118766;28;20032;-86
2023/04/05 09:52:44;;;;;;;;;;;12.50;64.60;;;-144.05;27.72;56904.06;5134286;27;20030;-86
2023/04/05 09:55:12;;;;;;;8.20;5.22;;;12.60;64.00;;;-144.05;27.50;56889.19;5117413;27;19957;-84
2023/04/05 09:57:44;;;;;;;10.02;5.35;;;12.80;62.60;;;-144.05;27.27;56874.31;5116885;28;20080;-88
2023/04/05 10:00:20;;;;;;;11.45;4.88;;;12.80;62.30;;;-144.05;26.86;56889.19;5133626;27;20441;-84
2023/04/05 10:02:46;;;;;;;9.52;5.22;;;12.90;60.40;;;-144.05;26.99;56887.06;5133187;27;20024;-84
2023/04/05 10:05:14;;;;;;;11.15;5.05;;;13.10;61.40;;;-144.05;26.97;56893.44;5134436;27;20091;-86
2023/04/05 10:07:42;;;;;;;9.32;5.60;;;13.00;62.70;;;-144.05;26.88;56889.19;5146708;27;20024;-85
2023/04/05 10:10:14;;;;;;;8.63;5.30;;;13.00;60.90;;;-144.05;26.91;56874.31;5124348;28;20416;-84